sensor_id;sensor_type;location;lat;lon;timestamp;P1;durP1;ratioP1;P2;durP2;ratioP2
24273;SDS011;12392;42.678;23.380;2023-03-05T00:01:36;21.10;;;10.25;;
24273;SDS011;12392;42.678;23.380;2023-03-05T00:04:03;22.70;;;11.18;;
24273;SDS011;12392;42.678;23.380;2023-03-05T00:06:30;19.90;;;10.02;;
24273;SDS011;12392;42.678;23.380;2023-03-05T00:08:57;17.75;;;10.13;;
24273;SDS011;12392;42.678;23.380;2023-03-05T00:11:23;23.63;;;11.00;;
24273;SDS011;12392;42.678;23.380;2023-03-05T00:13:52;21.67;;;10.00;;
24273;SDS011;12392;42.678;23.380;2023-03-05T00:16:18;23.42;;;11.77;;
24273;SDS011;12392;42.678;23.380;2023-03-05T00:18:44;23.02;;;10.95;;
24273;SDS011;12392;42.678;23.380;2023-03-05T00:24:10;19.90;;;9.75;;
24273;SDS011;12392;42.678;23.380;2023-03-05T00:26:42;23.17;;;10.63;;
24273;SDS011;12392;42.678;23.380;2023-03-05T00:29:09;23.17;;;11.02;;
24273;SDS011;12392;42.678;23.380;2023-03-05T00:31:37;22.13;;;11.05;;
24273;SDS011;12392;42.678;23.380;2023-03-05T00:34:07;23.45;;;12.32;;
24273;SDS011;12392;42.678;23.380;2023-03-05T00:36:34;29.38;;;11.20;;
24273;SDS011;12392;42.678;23.380;2023-03-05T00:39:03;22.80;;;10.98;;
24273;SDS011;12392;42.678;23.380;2023-03-05T00:41:28;25.35;;;12.10;;
24273;SDS011;12392;42.678;23.380;2023-03-05T00:43:54;23.42;;;11.27;;
24273;SDS011;12392;42.678;23.380;2023-03-05T00:46:20;26.20;;;9.85;;
24273;SDS011;12392;42.678;23.380;2023-03-05T00:48:46;25.50;;;10.55;;
24273;SDS011;12392;42.678;23.380;2023-03-05T00:51:12;22.58;;;10.93;;
24273;SDS011;12392;42.678;23.380;2023-03-05T00:53:38;23.27;;;11.30;;
24273;SDS011;12392;42.678;23.380;2023-03-05T00:56:04;20.88;;;9.98;;
24273;SDS011;12392;42.678;23.380;2023-03-05T00:58:30;19.75;;;10.48;;
24273;SDS011;12392;42.678;23.380;2023-03-05T01:00:56;24.17;;;11.68;;
24273;SDS011;12392;42.678;23.380;2023-03-05T01:03:24;21.40;;;9.85;;
24273;SDS011;12392;42.678;23.380;2023-03-05T01:05:50;19.27;;;10.63;;
24273;SDS011;12392;42.678;23.380;2023-03-05T01:08:15;27.67;;;10.00;;
24273;SDS011;12392;42.678;23.380;2023-03-05T01:10:41;20.77;;;10.18;;
24273;SDS011;12392;42.678;23.380;2023-03-05T01:13:07;18.70;;;10.10;;
24273;SDS011;12392;42.678;23.380;2023-03-05T01:15:33;23.52;;;10.35;;
24273;SDS011;12392;42.678;23.380;2023-03-05T01:17:58;25.35;;;11.15;;
24273;SDS011;12392;42.678;23.380;2023-03-05T01:20:24;21.35;;;11.43;;
24273;SDS011;12392;42.678;23.380;2023-03-05T01:22:50;23.45;;;9.75;;
24273;SDS011;12392;42.678;23.380;2023-03-05T01:25:16;22.65;;;9.48;;
24273;SDS011;12392;42.678;23.380;2023-03-05T01:27:42;17.73;;;10.32;;
24273;SDS011;12392;42.678;23.380;2023-03-05T01:30:08;20.75;;;10.02;;
24273;SDS011;12392;42.678;23.380;2023-03-05T01:32:34;24.40;;;10.07;;
24273;SDS011;12392;42.678;23.380;2023-03-05T01:35:01;23.35;;;10.60;;
24273;SDS011;12392;42.678;23.380;2023-03-05T01:37:27;23.38;;;11.13;;
24273;SDS011;12392;42.678;23.380;2023-03-05T01:39:53;18.60;;;10.02;;
24273;SDS011;12392;42.678;23.380;2023-03-05T01:42:19;19.77;;;9.50;;
24273;SDS011;12392;42.678;23.380;2023-03-05T01:47:36;21.67;;;10.10;;
24273;SDS011;12392;42.678;23.380;2023-03-05T01:50:04;19.80;;;9.27;;
24273;SDS011;12392;42.678;23.380;2023-03-05T01:52:32;19.98;;;9.73;;
24273;SDS011;12392;42.678;23.380;2023-03-05T01:55:04;17.88;;;9.45;;
24273;SDS011;12392;42.678;23.380;2023-03-05T02:00:53;21.88;;;10.27;;
24273;SDS011;12392;42.678;23.380;2023-03-05T02:03:02;21.02;;;10.38;;
24273;SDS011;12392;42.678;23.380;2023-03-05T02:05:31;19.90;;;10.18;;
24273;SDS011;12392;42.678;23.380;2023-03-05T02:07:59;18.95;;;9.65;;
24273;SDS011;12392;42.678;23.380;2023-03-05T02:10:27;19.48;;;9.30;;
24273;SDS011;12392;42.678;23.380;2023-03-05T02:12:58;23.45;;;10.25;;
24273;SDS011;12392;42.678;23.380;2023-03-05T02:15:25;21.25;;;9.77;;
24273;SDS011;12392;42.678;23.380;2023-03-05T02:17:52;21.38;;;9.52;;
24273;SDS011;12392;42.678;23.380;2023-03-05T02:20:20;21.70;;;11.20;;
24273;SDS011;12392;42.678;23.380;2023-03-05T02:22:50;24.20;;;11.80;;
24273;SDS011;12392;42.678;23.380;2023-03-05T02:28:02;22.55;;;9.18;;
24273;SDS011;12392;42.678;23.380;2023-03-05T02:30:32;19.27;;;10.02;;
24273;SDS011;12392;42.678;23.380;2023-03-05T02:32:59;18.52;;;9.38;;
24273;SDS011;12392;42.678;23.380;2023-03-05T02:35:25;25.02;;;10.15;;
24273;SDS011;12392;42.678;23.380;2023-03-05T02:37:51;21.80;;;9.65;;
24273;SDS011;12392;42.678;23.380;2023-03-05T02:40:16;29.33;;;10.40;;
24273;SDS011;12392;42.678;23.380;2023-03-05T02:42:42;20.67;;;9.82;;
24273;SDS011;12392;42.678;23.380;2023-03-05T02:45:08;24.08;;;9.98;;
24273;SDS011;12392;42.678;23.380;2023-03-05T02:47:35;24.58;;;10.35;;
24273;SDS011;12392;42.678;23.380;2023-03-05T02:50:01;21.52;;;10.15;;
24273;SDS011;12392;42.678;23.380;2023-03-05T02:52:28;24.13;;;11.35;;
24273;SDS011;12392;42.678;23.380;2023-03-05T02:54:54;19.52;;;10.20;;
24273;SDS011;12392;42.678;23.380;2023-03-05T02:57:20;21.17;;;9.35;;
24273;SDS011;12392;42.678;23.380;2023-03-05T02:59:46;20.13;;;9.52;;
24273;SDS011;12392;42.678;23.380;2023-03-05T03:02:12;19.42;;;10.27;;
24273;SDS011;12392;42.678;23.380;2023-03-05T03:04:38;25.92;;;10.95;;
24273;SDS011;12392;42.678;23.380;2023-03-05T03:07:03;19.83;;;9.60;;
24273;SDS011;12392;42.678;23.380;2023-03-05T03:09:29;22.67;;;10.82;;
24273;SDS011;12392;42.678;23.380;2023-03-05T03:11:55;22.90;;;11.23;;
24273;SDS011;12392;42.678;23.380;2023-03-05T03:14:20;25.15;;;11.23;;
24273;SDS011;12392;42.678;23.380;2023-03-05T03:16:46;24.02;;;10.45;;
24273;SDS011;12392;42.678;23.380;2023-03-05T03:19:12;26.63;;;11.50;;
24273;SDS011;12392;42.678;23.380;2023-03-05T03:21:38;23.88;;;10.80;;
24273;SDS011;12392;42.678;23.380;2023-03-05T03:24:03;26.17;;;10.82;;
24273;SDS011;12392;42.678;23.380;2023-03-05T03:26:29;28.20;;;11.38;;
24273;SDS011;12392;42.678;23.380;2023-03-05T03:28:56;20.55;;;11.48;;
24273;SDS011;12392;42.678;23.380;2023-03-05T03:31:21;27.33;;;12.00;;
24273;SDS011;12392;42.678;23.380;2023-03-05T03:33:47;23.50;;;11.05;;
24273;SDS011;12392;42.678;23.380;2023-03-05T03:36:13;24.83;;;11.10;;
24273;SDS011;12392;42.678;23.380;2023-03-05T03:38:39;23.13;;;11.30;;
24273;SDS011;12392;42.678;23.380;2023-03-05T03:41:05;25.15;;;10.90;;
24273;SDS011;12392;42.678;23.380;2023-03-05T03:43:32;24.33;;;11.63;;
24273;SDS011;12392;42.678;23.380;2023-03-05T03:45:58;28.83;;;13.02;;
24273;SDS011;12392;42.678;23.380;2023-03-05T03:48:24;30.00;;;11.52;;
24273;SDS011;12392;42.678;23.380;2023-03-05T03:50:50;24.52;;;9.90;;
24273;SDS011;12392;42.678;23.380;2023-03-05T03:53:15;21.20;;;10.93;;
24273;SDS011;12392;42.678;23.380;2023-03-05T03:55:41;23.10;;;10.82;;
24273;SDS011;12392;42.678;23.380;2023-03-05T03:58:08;28.50;;;12.45;;
24273;SDS011;12392;42.678;23.380;2023-03-05T04:00:34;23.42;;;10.82;;
24273;SDS011;12392;42.678;23.380;2023-03-05T04:03:00;23.33;;;10.88;;
24273;SDS011;12392;42.678;23.380;2023-03-05T04:05:26;27.27;;;12.02;;
24273;SDS011;12392;42.678;23.380;2023-03-05T04:07:51;30.83;;;12.77;;
24273;SDS011;12392;42.678;23.380;2023-03-05T04:10:17;27.60;;;11.73;;
24273;SDS011;12392;42.678;23.380;2023-03-05T04:12:43;25.10;;;11.48;;
24273;SDS011;12392;42.678;23.380;2023-03-05T04:15:10;24.10;;;11.68;;
24273;SDS011;12392;42.678;23.380;2023-03-05T04:17:36;27.23;;;10.75;;
24273;SDS011;12392;42.678;23.380;2023-03-05T04:20:03;24.95;;;11.18;;
24273;SDS011;12392;42.678;23.380;2023-03-05T04:22:29;23.13;;;11.52;;
24273;SDS011;12392;42.678;23.380;2023-03-05T04:24:55;29.23;;;11.55;;
24273;SDS011;12392;42.678;23.380;2023-03-05T04:27:21;25.52;;;11.27;;
24273;SDS011;12392;42.678;23.380;2023-03-05T04:29:46;21.30;;;10.27;;
24273;SDS011;12392;42.678;23.380;2023-03-05T04:32:12;20.58;;;10.95;;
24273;SDS011;12392;42.678;23.380;2023-03-05T04:34:38;27.58;;;11.07;;
24273;SDS011;12392;42.678;23.380;2023-03-05T04:37:04;24.25;;;10.63;;
24273;SDS011;12392;42.678;23.380;2023-03-05T04:39:30;28.42;;;11.15;;
24273;SDS011;12392;42.678;23.380;2023-03-05T04:41:55;26.33;;;12.07;;
24273;SDS011;12392;42.678;23.380;2023-03-05T04:44:21;25.10;;;10.82;;
24273;SDS011;12392;42.678;23.380;2023-03-05T04:46:49;22.13;;;10.25;;
24273;SDS011;12392;42.678;23.380;2023-03-05T04:49:14;27.92;;;10.52;;
24273;SDS011;12392;42.678;23.380;2023-03-05T04:51:40;25.17;;;10.45;;
24273;SDS011;12392;42.678;23.380;2023-03-05T04:54:06;21.23;;;9.85;;
24273;SDS011;12392;42.678;23.380;2023-03-05T04:56:32;25.73;;;10.52;;
24273;SDS011;12392;42.678;23.380;2023-03-05T04:58:58;25.48;;;9.85;;
24273;SDS011;12392;42.678;23.380;2023-03-05T05:01:24;23.08;;;10.38;;
24273;SDS011;12392;42.678;23.380;2023-03-05T05:03:50;23.10;;;10.88;;
24273;SDS011;12392;42.678;23.380;2023-03-05T05:06:15;22.88;;;10.15;;
24273;SDS011;12392;42.678;23.380;2023-03-05T05:08:41;23.90;;;11.27;;
24273;SDS011;12392;42.678;23.380;2023-03-05T05:11:09;21.40;;;10.10;;
24273;SDS011;12392;42.678;23.380;2023-03-05T05:13:36;21.98;;;9.68;;
24273;SDS011;12392;42.678;23.380;2023-03-05T05:16:04;24.13;;;10.45;;
24273;SDS011;12392;42.678;23.380;2023-03-05T05:18:31;21.13;;;10.07;;
24273;SDS011;12392;42.678;23.380;2023-03-05T05:20:56;24.05;;;9.35;;
24273;SDS011;12392;42.678;23.380;2023-03-05T05:23:22;19.88;;;9.27;;
24273;SDS011;12392;42.678;23.380;2023-03-05T05:25:55;23.65;;;10.85;;
24273;SDS011;12392;42.678;23.380;2023-03-05T05:28:23;25.27;;;10.70;;
24273;SDS011;12392;42.678;23.380;2023-03-05T05:30:49;24.73;;;11.27;;
24273;SDS011;12392;42.678;23.380;2023-03-05T05:33:15;20.83;;;10.32;;
24273;SDS011;12392;42.678;23.380;2023-03-05T05:35:40;20.13;;;10.07;;
24273;SDS011;12392;42.678;23.380;2023-03-05T05:38:06;25.23;;;10.15;;
24273;SDS011;12392;42.678;23.380;2023-03-05T05:40:32;21.27;;;9.68;;
24273;SDS011;12392;42.678;23.380;2023-03-05T05:42:57;24.15;;;10.05;;
24273;SDS011;12392;42.678;23.380;2023-03-05T05:45:23;24.25;;;10.40;;
24273;SDS011;12392;42.678;23.380;2023-03-05T05:47:49;20.65;;;8.65;;
24273;SDS011;12392;42.678;23.380;2023-03-05T05:50:14;24.98;;;11.23;;
24273;SDS011;12392;42.678;23.380;2023-03-05T05:52:40;26.02;;;10.65;;
24273;SDS011;12392;42.678;23.380;2023-03-05T05:55:06;23.90;;;10.30;;
24273;SDS011;12392;42.678;23.380;2023-03-05T05:57:33;24.70;;;10.75;;
24273;SDS011;12392;42.678;23.380;2023-03-05T05:59:59;25.63;;;10.30;;
24273;SDS011;12392;42.678;23.380;2023-03-05T06:02:25;17.88;;;8.57;;
24273;SDS011;12392;42.678;23.380;2023-03-05T06:04:51;19.60;;;9.90;;
24273;SDS011;12392;42.678;23.380;2023-03-05T06:07:17;29.02;;;9.02;;
24273;SDS011;12392;42.678;23.380;2023-03-05T06:09:43;20.48;;;10.38;;
24273;SDS011;12392;42.678;23.380;2023-03-05T06:12:08;24.08;;;9.90;;
24273;SDS011;12392;42.678;23.380;2023-03-05T06:14:35;16.92;;;8.43;;
24273;SDS011;12392;42.678;23.380;2023-03-05T06:17:00;20.10;;;9.73;;
24273;SDS011;12392;42.678;23.380;2023-03-05T06:19:26;24.60;;;10.35;;
24273;SDS011;12392;42.678;23.380;2023-03-05T06:21:52;22.40;;;10.18;;
24273;SDS011;12392;42.678;23.380;2023-03-05T06:24:18;18.15;;;7.90;;
24273;SDS011;12392;42.678;23.380;2023-03-05T06:26:44;24.88;;;8.90;;
24273;SDS011;12392;42.678;23.380;2023-03-05T06:29:10;18.13;;;8.75;;
24273;SDS011;12392;42.678;23.380;2023-03-05T06:31:37;16.48;;;9.07;;
24273;SDS011;12392;42.678;23.380;2023-03-05T06:34:03;22.38;;;8.98;;
24273;SDS011;12392;42.678;23.380;2023-03-05T06:36:29;23.30;;;8.95;;
24273;SDS011;12392;42.678;23.380;2023-03-05T06:38:55;18.90;;;8.25;;
24273;SDS011;12392;42.678;23.380;2023-03-05T06:41:22;25.48;;;10.82;;
24273;SDS011;12392;42.678;23.380;2023-03-05T06:43:52;19.40;;;9.52;;
24273;SDS011;12392;42.678;23.380;2023-03-05T06:46:26;21.00;;;8.90;;
24273;SDS011;12392;42.678;23.380;2023-03-05T06:48:58;16.42;;;8.60;;
24273;SDS011;12392;42.678;23.380;2023-03-05T06:51:26;22.90;;;9.70;;
24273;SDS011;12392;42.678;23.380;2023-03-05T06:54:00;17.27;;;8.25;;
24273;SDS011;12392;42.678;23.380;2023-03-05T06:56:28;16.67;;;9.03;;
24273;SDS011;12392;42.678;23.380;2023-03-05T06:58:54;15.75;;;8.85;;
24273;SDS011;12392;42.678;23.380;2023-03-05T07:01:20;22.23;;;9.50;;
24273;SDS011;12392;42.678;23.380;2023-03-05T07:03:49;19.73;;;9.43;;
24273;SDS011;12392;42.678;23.380;2023-03-05T07:06:16;19.92;;;9.40;;
24273;SDS011;12392;42.678;23.380;2023-03-05T07:08:42;15.68;;;7.82;;
24273;SDS011;12392;42.678;23.380;2023-03-05T07:11:12;17.67;;;9.00;;
24273;SDS011;12392;42.678;23.380;2023-03-05T07:13:39;18.80;;;8.45;;
24273;SDS011;12392;42.678;23.380;2023-03-05T07:16:06;18.20;;;9.73;;
24273;SDS011;12392;42.678;23.380;2023-03-05T07:18:33;22.80;;;9.35;;
24273;SDS011;12392;42.678;23.380;2023-03-05T07:21:06;21.27;;;10.07;;
24273;SDS011;12392;42.678;23.380;2023-03-05T07:23:33;21.38;;;9.75;;
24273;SDS011;12392;42.678;23.380;2023-03-05T07:26:03;19.27;;;9.43;;
24273;SDS011;12392;42.678;23.380;2023-03-05T07:28:29;16.08;;;8.90;;
24273;SDS011;12392;42.678;23.380;2023-03-05T07:31:05;17.98;;;9.50;;
24273;SDS011;12392;42.678;23.380;2023-03-05T07:33:33;23.83;;;10.48;;
24273;SDS011;12392;42.678;23.380;2023-03-05T07:36:01;17.17;;;9.18;;
24273;SDS011;12392;42.678;23.380;2023-03-05T07:38:29;21.58;;;9.57;;
24273;SDS011;12392;42.678;23.380;2023-03-05T07:40:55;19.23;;;9.43;;
24273;SDS011;12392;42.678;23.380;2023-03-05T07:43:21;22.90;;;10.35;;
24273;SDS011;12392;42.678;23.380;2023-03-05T07:45:47;17.42;;;10.13;;
24273;SDS011;12392;42.678;23.380;2023-03-05T07:48:13;22.33;;;10.35;;
24273;SDS011;12392;42.678;23.380;2023-03-05T07:50:40;19.00;;;9.45;;
24273;SDS011;12392;42.678;23.380;2023-03-05T07:53:07;21.88;;;10.15;;
24273;SDS011;12392;42.678;23.380;2023-03-05T07:55:33;19.38;;;10.13;;
24273;SDS011;12392;42.678;23.380;2023-03-05T07:57:59;21.73;;;10.95;;
24273;SDS011;12392;42.678;23.380;2023-03-05T08:00:25;22.75;;;11.02;;
24273;SDS011;12392;42.678;23.380;2023-03-05T08:02:50;23.27;;;10.50;;
24273;SDS011;12392;42.678;23.380;2023-03-05T08:05:16;20.08;;;10.32;;
24273;SDS011;12392;42.678;23.380;2023-03-05T08:07:42;32.30;;;11.75;;
24273;SDS011;12392;42.678;23.380;2023-03-05T08:10:08;23.25;;;10.05;;
24273;SDS011;12392;42.678;23.380;2023-03-05T08:12:34;22.75;;;11.35;;
24273;SDS011;12392;42.678;23.380;2023-03-05T08:14:59;26.73;;;11.40;;
24273;SDS011;12392;42.678;23.380;2023-03-05T08:17:25;26.67;;;11.77;;
24273;SDS011;12392;42.678;23.380;2023-03-05T08:19:51;26.40;;;11.55;;
24273;SDS011;12392;42.678;23.380;2023-03-05T08:22:18;23.48;;;11.63;;
24273;SDS011;12392;42.678;23.380;2023-03-05T08:24:44;22.48;;;11.63;;
24273;SDS011;12392;42.678;23.380;2023-03-05T08:27:10;21.48;;;11.05;;
24273;SDS011;12392;42.678;23.380;2023-03-05T08:29:36;24.60;;;11.30;;
24273;SDS011;12392;42.678;23.380;2023-03-05T08:32:01;25.52;;;10.65;;
24273;SDS011;12392;42.678;23.380;2023-03-05T08:34:27;24.98;;;11.10;;
24273;SDS011;12392;42.678;23.380;2023-03-05T08:36:53;21.50;;;11.45;;
24273;SDS011;12392;42.678;23.380;2023-03-05T08:39:19;27.30;;;11.55;;
24273;SDS011;12392;42.678;23.380;2023-03-05T08:41:44;25.38;;;11.68;;
24273;SDS011;12392;42.678;23.380;2023-03-05T08:44:10;27.85;;;11.80;;
24273;SDS011;12392;42.678;23.380;2023-03-05T08:46:37;24.52;;;11.88;;
24273;SDS011;12392;42.678;23.380;2023-03-05T08:49:04;24.63;;;12.32;;
24273;SDS011;12392;42.678;23.380;2023-03-05T08:51:31;23.23;;;11.63;;
24273;SDS011;12392;42.678;23.380;2023-03-05T08:53:57;26.65;;;12.20;;
24273;SDS011;12392;42.678;23.380;2023-03-05T08:56:24;26.90;;;12.40;;
24273;SDS011;12392;42.678;23.380;2023-03-05T08:58:52;25.67;;;11.88;;
24273;SDS011;12392;42.678;23.380;2023-03-05T09:01:18;23.80;;;12.27;;
24273;SDS011;12392;42.678;23.380;2023-03-05T09:03:44;23.23;;;11.25;;
24273;SDS011;12392;42.678;23.380;2023-03-05T09:06:10;22.33;;;12.25;;
24273;SDS011;12392;42.678;23.380;2023-03-05T09:08:36;23.35;;;11.68;;
24273;SDS011;12392;42.678;23.380;2023-03-05T09:11:03;26.23;;;11.20;;
24273;SDS011;12392;42.678;23.380;2023-03-05T09:13:30;21.98;;;10.82;;
24273;SDS011;12392;42.678;23.380;2023-03-05T09:15:57;26.50;;;12.20;;
24273;SDS011;12392;42.678;23.380;2023-03-05T09:18:24;28.40;;;12.00;;
24273;SDS011;12392;42.678;23.380;2023-03-05T09:20:50;23.83;;;11.27;;
24273;SDS011;12392;42.678;23.380;2023-03-05T09:23:17;24.58;;;11.68;;
24273;SDS011;12392;42.678;23.380;2023-03-05T09:25:42;23.17;;;10.50;;
24273;SDS011;12392;42.678;23.380;2023-03-05T09:28:08;17.90;;;9.85;;
24273;SDS011;12392;42.678;23.380;2023-03-05T09:30:34;20.20;;;10.48;;
24273;SDS011;12392;42.678;23.380;2023-03-05T09:33:00;19.45;;;9.55;;
24273;SDS011;12392;42.678;23.380;2023-03-05T09:35:26;17.80;;;10.02;;
24273;SDS011;12392;42.678;23.380;2023-03-05T09:37:52;19.23;;;10.23;;
24273;SDS011;12392;42.678;23.380;2023-03-05T09:40:19;25.38;;;10.70;;
24273;SDS011;12392;42.678;23.380;2023-03-05T09:51:04;19.50;;;9.23;;
24273;SDS011;12392;42.678;23.380;2023-03-05T09:53:43;18.80;;;9.65;;
24273;SDS011;12392;42.678;23.380;2023-03-05T09:56:13;19.58;;;10.13;;
24273;SDS011;12392;42.678;23.380;2023-03-05T10:01:17;22.08;;;10.32;;
24273;SDS011;12392;42.678;23.380;2023-03-05T10:12:00;18.05;;;9.68;;
24273;SDS011;12392;42.678;23.380;2023-03-05T10:14:33;19.40;;;10.27;;
24273;SDS011;12392;42.678;23.380;2023-03-05T10:27:49;18.92;;;9.07;;
24273;SDS011;12392;42.678;23.380;2023-03-05T10:33:01;16.25;;;8.50;;
24273;SDS011;12392;42.678;23.380;2023-03-05T10:41:35;16.98;;;9.20;;
24273;SDS011;12392;42.678;23.380;2023-03-05T10:44:31;16.77;;;8.45;;
24273;SDS011;12392;42.678;23.380;2023-03-05T10:47:14;18.08;;;7.80;;
24273;SDS011;12392;42.678;23.380;2023-03-05T10:49:50;16.42;;;8.65;;
24273;SDS011;12392;42.678;23.380;2023-03-05T10:52:19;15.63;;;8.02;;
24273;SDS011;12392;42.678;23.380;2023-03-05T10:54:52;15.18;;;8.13;;
24273;SDS011;12392;42.678;23.380;2023-03-05T11:02:18;14.65;;;8.10;;
24273;SDS011;12392;42.678;23.380;2023-03-05T11:04:44;14.43;;;7.97;;
24273;SDS011;12392;42.678;23.380;2023-03-05T11:09:39;14.75;;;7.63;;
24273;SDS011;12392;42.678;23.380;2023-03-05T11:12:20;13.13;;;7.22;;
24273;SDS011;12392;42.678;23.380;2023-03-05T11:15:04;19.75;;;8.88;;
24273;SDS011;12392;42.678;23.380;2023-03-05T11:17:39;16.30;;;7.93;;
24273;SDS011;12392;42.678;23.380;2023-03-05T11:25:57;17.45;;;9.52;;
24273;SDS011;12392;42.678;23.380;2023-03-05T11:28:39;14.93;;;8.32;;
24273;SDS011;12392;42.678;23.380;2023-03-05T11:31:21;17.55;;;8.55;;
24273;SDS011;12392;42.678;23.380;2023-03-05T11:39:08;15.75;;;8.40;;
24273;SDS011;12392;42.678;23.380;2023-03-05T11:44:26;14.23;;;6.95;;
24273;SDS011;12392;42.678;23.380;2023-03-05T11:47:01;15.27;;;8.10;;
24273;SDS011;12392;42.678;23.380;2023-03-05T11:55:07;15.20;;;6.95;;
24273;SDS011;12392;42.678;23.380;2023-03-05T11:57:45;12.82;;;7.00;;
24273;SDS011;12392;42.678;23.380;2023-03-05T12:00:23;10.93;;;6.65;;
24273;SDS011;12392;42.678;23.380;2023-03-05T12:02:53;15.27;;;7.03;;
24273;SDS011;12392;42.678;23.380;2023-03-05T12:05:21;13.23;;;6.20;;
24273;SDS011;12392;42.678;23.380;2023-03-05T12:07:50;15.02;;;7.13;;
24273;SDS011;12392;42.678;23.380;2023-03-05T12:10:22;14.35;;;6.78;;
24273;SDS011;12392;42.678;23.380;2023-03-05T12:20:32;11.65;;;6.40;;
24273;SDS011;12392;42.678;23.380;2023-03-05T12:23:02;14.10;;;7.10;;
24273;SDS011;12392;42.678;23.380;2023-03-05T12:25:43;11.75;;;6.35;;
24273;SDS011;12392;42.678;23.380;2023-03-05T12:28:14;12.02;;;6.43;;
24273;SDS011;12392;42.678;23.380;2023-03-05T12:33:28;11.80;;;6.95;;
24273;SDS011;12392;42.678;23.380;2023-03-05T12:38:55;15.27;;;7.28;;
24273;SDS011;12392;42.678;23.380;2023-03-05T12:46:38;11.43;;;6.60;;
24273;SDS011;12392;42.678;23.380;2023-03-05T12:51:42;13.00;;;6.25;;
24273;SDS011;12392;42.678;23.380;2023-03-05T12:54:26;16.15;;;7.10;;
24273;SDS011;12392;42.678;23.380;2023-03-05T12:56:54;15.95;;;6.88;;
24273;SDS011;12392;42.678;23.380;2023-03-05T12:59:22;11.52;;;6.15;;
24273;SDS011;12392;42.678;23.380;2023-03-05T13:01:59;10.02;;;5.95;;
24273;SDS011;12392;42.678;23.380;2023-03-05T13:04:28;10.40;;;5.68;;
24273;SDS011;12392;42.678;23.380;2023-03-05T13:06:59;11.50;;;6.80;;
24273;SDS011;12392;42.678;23.380;2023-03-05T13:09:30;15.80;;;6.95;;
24273;SDS011;12392;42.678;23.380;2023-03-05T13:11:59;13.32;;;6.70;;
24273;SDS011;12392;42.678;23.380;2023-03-05T13:14:44;15.50;;;7.97;;
24273;SDS011;12392;42.678;23.380;2023-03-05T13:17:24;14.00;;;6.97;;
24273;SDS011;12392;42.678;23.380;2023-03-05T13:19:55;14.10;;;6.25;;
24273;SDS011;12392;42.678;23.380;2023-03-05T13:22:21;11.55;;;6.18;;
24273;SDS011;12392;42.678;23.380;2023-03-05T13:25:03;13.35;;;6.53;;
24273;SDS011;12392;42.678;23.380;2023-03-05T13:27:40;13.60;;;6.85;;
24273;SDS011;12392;42.678;23.380;2023-03-05T13:30:26;12.77;;;7.30;;
24273;SDS011;12392;42.678;23.380;2023-03-05T13:32:54;13.20;;;7.00;;
24273;SDS011;12392;42.678;23.380;2023-03-05T13:35:23;11.68;;;6.88;;
24273;SDS011;12392;42.678;23.380;2023-03-05T13:37:48;11.25;;;6.32;;
24273;SDS011;12392;42.678;23.380;2023-03-05T13:42:41;12.43;;;7.40;;
24273;SDS011;12392;42.678;23.380;2023-03-05T13:45:20;11.35;;;6.72;;
24273;SDS011;12392;42.678;23.380;2023-03-05T13:47:56;14.52;;;6.40;;
24273;SDS011;12392;42.678;23.380;2023-03-05T13:50:25;14.10;;;6.03;;
24273;SDS011;12392;42.678;23.380;2023-03-05T13:55:45;11.13;;;6.15;;
24273;SDS011;12392;42.678;23.380;2023-03-05T14:01:32;12.02;;;7.00;;
24273;SDS011;12392;42.678;23.380;2023-03-05T14:04:07;13.63;;;6.30;;
24273;SDS011;12392;42.678;23.380;2023-03-05T14:14:45;19.52;;;7.55;;
24273;SDS011;12392;42.678;23.380;2023-03-05T14:22:34;16.40;;;7.57;;
24273;SDS011;12392;42.678;23.380;2023-03-05T14:28:04;15.00;;;7.85;;
24273;SDS011;12392;42.678;23.380;2023-03-05T14:30:45;13.45;;;6.55;;
24273;SDS011;12392;42.678;23.380;2023-03-05T14:33:12;14.85;;;8.23;;
24273;SDS011;12392;42.678;23.380;2023-03-05T14:35:38;14.45;;;7.47;;
24273;SDS011;12392;42.678;23.380;2023-03-05T14:38:04;20.38;;;8.88;;
24273;SDS011;12392;42.678;23.380;2023-03-05T14:40:33;15.88;;;8.57;;
24273;SDS011;12392;42.678;23.380;2023-03-05T14:43:00;14.40;;;7.78;;
24273;SDS011;12392;42.678;23.380;2023-03-05T14:47:55;16.83;;;7.32;;
24273;SDS011;12392;42.678;23.380;2023-03-05T14:52:55;13.68;;;8.15;;
24273;SDS011;12392;42.678;23.380;2023-03-05T14:55:24;17.08;;;8.13;;
24273;SDS011;12392;42.678;23.380;2023-03-05T14:57:53;18.00;;;8.20;;
24273;SDS011;12392;42.678;23.380;2023-03-05T15:00:24;14.70;;;7.70;;
24273;SDS011;12392;42.678;23.380;2023-03-05T15:02:51;17.15;;;7.80;;
24273;SDS011;12392;42.678;23.380;2023-03-05T15:05:17;14.52;;;7.82;;
24273;SDS011;12392;42.678;23.380;2023-03-05T15:07:44;17.55;;;8.38;;
24273;SDS011;12392;42.678;23.380;2023-03-05T15:10:13;19.77;;;8.13;;
24273;SDS011;12392;42.678;23.380;2023-03-05T15:12:40;16.10;;;8.40;;
24273;SDS011;12392;42.678;23.380;2023-03-05T15:15:06;21.70;;;10.10;;
24273;SDS011;12392;42.678;23.380;2023-03-05T15:17:33;18.00;;;9.20;;
24273;SDS011;12392;42.678;23.380;2023-03-05T15:20:01;15.90;;;8.25;;
24273;SDS011;12392;42.678;23.380;2023-03-05T15:22:34;20.45;;;8.80;;
24273;SDS011;12392;42.678;23.380;2023-03-05T15:25:01;16.35;;;8.02;;
24273;SDS011;12392;42.678;23.380;2023-03-05T15:27:27;15.90;;;8.90;;
24273;SDS011;12392;42.678;23.380;2023-03-05T15:29:52;16.30;;;8.73;;
24273;SDS011;12392;42.678;23.380;2023-03-05T15:32:18;17.90;;;8.35;;
24273;SDS011;12392;42.678;23.380;2023-03-05T15:34:44;21.52;;;8.40;;
24273;SDS011;12392;42.678;23.380;2023-03-05T15:37:09;21.05;;;9.10;;
24273;SDS011;12392;42.678;23.380;2023-03-05T15:39:35;18.58;;;9.15;;
24273;SDS011;12392;42.678;23.380;2023-03-05T15:42:01;12.68;;;8.13;;
24273;SDS011;12392;42.678;23.380;2023-03-05T15:44:27;13.50;;;7.78;;
24273;SDS011;12392;42.678;23.380;2023-03-05T15:46:52;17.67;;;8.07;;
24273;SDS011;12392;42.678;23.380;2023-03-05T15:49:20;16.50;;;8.20;;
24273;SDS011;12392;42.678;23.380;2023-03-05T15:51:48;14.88;;;7.43;;
24273;SDS011;12392;42.678;23.380;2023-03-05T15:54:14;16.35;;;7.70;;
24273;SDS011;12392;42.678;23.380;2023-03-05T15:56:40;15.65;;;7.80;;
24273;SDS011;12392;42.678;23.380;2023-03-05T15:59:06;18.25;;;8.10;;
24273;SDS011;12392;42.678;23.380;2023-03-05T16:01:34;19.58;;;9.02;;
24273;SDS011;12392;42.678;23.380;2023-03-05T16:04:03;17.40;;;8.18;;
24273;SDS011;12392;42.678;23.380;2023-03-05T16:06:29;16.20;;;7.40;;
24273;SDS011;12392;42.678;23.380;2023-03-05T16:09:02;20.08;;;9.45;;
24273;SDS011;12392;42.678;23.380;2023-03-05T16:11:29;17.58;;;8.50;;
24273;SDS011;12392;42.678;23.380;2023-03-05T16:13:56;19.70;;;9.30;;
24273;SDS011;12392;42.678;23.380;2023-03-05T16:16:25;16.98;;;8.35;;
24273;SDS011;12392;42.678;23.380;2023-03-05T16:18:52;16.73;;;8.70;;
24273;SDS011;12392;42.678;23.380;2023-03-05T16:21:18;13.75;;;7.72;;
24273;SDS011;12392;42.678;23.380;2023-03-05T16:23:44;17.17;;;8.27;;
24273;SDS011;12392;42.678;23.380;2023-03-05T16:26:10;14.88;;;7.82;;
24273;SDS011;12392;42.678;23.380;2023-03-05T16:28:36;18.48;;;7.97;;